Time,TemperatureF,DewpointF,PressureIn,WindDirection,WindDirectionDegrees,WindSpeedMPH,WindSpeedGustMPH,Humidity,HourlyPrecipIn,Conditions,Clouds,dailyrainin,SoftwareType,DateUTC
2013-03-04 00:06:00,34.0,31.1,29.53,SSW,202,5.3,-999.0,89,-99.99,,,0.00,Acu-Link.com,2013-03-04 06:06:00,
2013-03-04 00:21:00,33.3,30.7,29.53,SSE,157,2.7,-999.0,90,-99.99,,,0.00,Acu-Link.com,2013-03-04 06:21:00,
2013-03-04 00:36:00,33.1,30.8,29.52,ESE,112,2.7,-999.0,91,-99.99,,,0.00,Acu-Link.com,2013-03-04 06:36:00,
2013-03-04 00:51:00,32.9,30.6,29.52,ENE,67,3.7,-999.0,91,-99.99,,,0.00,Acu-Link.com,2013-03-04 06:51:00,
2013-03-04 01:07:00,32.7,30.4,29.52,SW,225,2.2,-999.0,91,-99.99,,,0.00,Acu-Link.com,2013-03-04 07:07:00,
2013-03-04 01:22:00,32.4,30.1,29.52,South,180,2.7,-999.0,91,-99.99,,,0.00,Acu-Link.com,2013-03-04 07:22:00,
2013-03-04 01:37:00,32.2,30.1,29.52,SE,135,2.7,-999.0,92,-99.99,,,0.00,Acu-Link.com,2013-03-04 07:37:00,
2013-03-04 01:52:00,31.5,29.4,29.52,South,180,4.2,-999.0,92,-99.99,,,0.00,Acu-Link.com,2013-03-04 07:52:00,
2013-03-04 02:08:00,31.1,29.3,29.52,South,180,2.2,-999.0,93,-99.99,,,0.00,Acu-Link.com,2013-03-04 08:08:00,
2013-03-04 02:23:00,30.7,29.2,29.51,South,180,2.2,-999.0,94,-99.99,,,0.00,Acu-Link.com,2013-03-04 08:23:00,
2013-03-04 02:38:00,30.7,29.2,29.51,South,180,2.2,-999.0,94,-99.99,,,0.00,Acu-Link.com,2013-03-04 08:38:00,
2013-03-04 02:53:00,30.2,28.9,29.51,SSE,157,2.2,-999.0,95,-99.99,,,0.00,Acu-Link.com,2013-03-04 08:53:00,
2013-03-04 03:20:00,29.8,28.5,29.51,South,180,0.0,-999.0,95,-99.99,,,0.00,Acu-Link.com,2013-03-04 09:20:00,
2013-03-04 03:35:00,29.1,28.1,29.50,SSW,202,3.2,-999.0,96,-99.99,,,0.00,Acu-Link.com,2013-03-04 09:35:00,
2013-03-04 03:50:00,29.3,28.3,29.50,SSW,202,2.2,-999.0,96,-99.99,,,0.00,Acu-Link.com,2013-03-04 09:50:00,
2013-03-04 04:05:00,29.1,28.4,29.51,West,270,3.2,-999.0,97,-99.99,,,0.00,Acu-Link.com,2013-03-04 10:05:00,
2013-03-04 04:20:00,28.9,28.2,29.51,SW,225,2.7,-999.0,97,-99.99,,,0.00,Acu-Link.com,2013-03-04 10:20:00,
2013-03-04 04:36:00,29.1,28.4,29.51,West,270,2.7,-999.0,97,-99.99,,,0.00,Acu-Link.com,2013-03-04 10:36:00,
2013-03-04 04:51:00,28.8,28.3,29.52,SW,225,1.7,-999.0,98,-99.99,,,0.00,Acu-Link.com,2013-03-04 10:51:00,
2013-03-04 05:06:00,29.1,28.6,29.53,WSW,247,4.2,-999.0,98,-99.99,,,0.00,Acu-Link.com,2013-03-04 11:06:00,
2013-03-04 05:21:00,31.5,30.7,29.55,WNW,292,4.7,-999.0,97,-99.99,,,0.00,Acu-Link.com,2013-03-04 11:21:00,
2013-03-04 05:36:00,35.2,33.4,29.55,NW,315,8.3,-999.0,93,-99.99,,,0.00,Acu-Link.com,2013-03-04 11:36:00,
2013-03-04 05:51:00,36.1,34.3,29.57,North,0,8.3,-999.0,93,-99.99,,,0.00,Acu-Link.com,2013-03-04 11:51:00,
2013-03-04 06:07:00,36.5,34.4,29.57,WNW,292,6.3,-999.0,92,-99.99,,,0.00,Acu-Link.com,2013-03-04 12:07:00,
2013-03-04 06:22:00,37.0,34.9,29.56,WNW,292,9.4,-999.0,92,-99.99,,,0.00,Acu-Link.com,2013-03-04 12:22:00,
2013-03-04 06:37:00,37.4,35.3,29.57,North,0,6.3,-999.0,92,-99.99,,,0.00,Acu-Link.com,2013-03-04 12:37:00,
2013-03-04 06:52:00,37.6,35.2,29.57,WNW,292,8.9,-999.0,91,-99.99,,,0.00,Acu-Link.com,2013-03-04 12:52:00,
2013-03-04 07:07:00,37.2,34.8,29.58,NNW,337,9.4,-999.0,91,-99.99,,,0.00,Acu-Link.com,2013-03-04 13:07:00,
2013-03-04 07:22:00,36.9,34.5,29.59,NW,315,7.3,-999.0,91,-99.99,,,0.00,Acu-Link.com,2013-03-04 13:22:00,
2013-03-04 07:37:00,36.5,33.9,29.61,West,270,4.2,-999.0,90,-99.99,,,0.00,Acu-Link.com,2013-03-04 13:37:00,
2013-03-04 07:52:00,36.3,33.7,29.61,NW,315,6.3,-999.0,90,-99.99,,,0.00,Acu-Link.com,2013-03-04 13:52:00,
2013-03-04 08:08:00,36.1,33.2,29.62,WNW,292,7.8,-999.0,89,-99.99,,,0.00,Acu-Link.com,2013-03-04 14:08:00,
2013-03-04 08:23:00,36.1,33.2,29.63,NW,315,4.7,-999.0,89,-99.99,,,0.00,Acu-Link.com,2013-03-04 14:23:00,
2013-03-04 08:38:00,36.1,33.2,29.63,NW,315,7.8,-999.0,89,-99.99,,,0.00,Acu-Link.com,2013-03-04 14:38:00,
2013-03-04 08:53:00,36.5,33.6,29.65,East,90,5.3,-999.0,89,-99.99,,,0.00,Acu-Link.com,2013-03-04 14:53:00,
2013-03-04 09:08:00,36.7,33.8,29.65,WNW,292,7.8,-999.0,89,-99.99,,,0.00,Acu-Link.com,2013-03-04 15:08:00,
2013-03-04 09:24:00,36.7,33.8,29.66,NW,315,5.8,-999.0,89,-99.99,,,0.00,Acu-Link.com,2013-03-04 15:24:00,
2013-03-04 09:39:00,36.9,34.0,29.66,NW,315,9.4,-999.0,89,-99.99,,,0.00,Acu-Link.com,2013-03-04 15:39:00,
2013-03-04 09:54:00,37.4,33.9,29.67,NNE,22,8.3,-999.0,87,-99.99,,,0.00,Acu-Link.com,2013-03-04 15:54:00,
2013-03-04 10:09:00,38.3,33.9,29.68,NNW,337,7.8,-999.0,84,-99.99,,,0.00,Acu-Link.com,2013-03-04 16:09:00,
2013-03-04 10:25:00,39.2,34.5,29.67,NNW,337,5.8,-999.0,83,-99.99,,,0.00,Acu-Link.com,2013-03-04 16:25:00,
2013-03-04 10:40:00,39.9,34.2,29.67,NW,315,10.9,-999.0,80,-99.99,,,0.00,Acu-Link.com,2013-03-04 16:40:00,
2013-03-04 10:55:00,40.6,34.9,29.67,NW,315,5.3,-999.0,80,-99.99,,,0.00,Acu-Link.com,2013-03-04 16:55:00,
2013-03-04 11:10:00,41.4,34.7,29.68,NNW,337,8.3,-999.0,77,-99.99,,,0.00,Acu-Link.com,2013-03-04 17:10:00,
2013-03-04 11:25:00,41.9,34.9,29.67,NE,45,5.3,-999.0,76,-99.99,,,0.00,Acu-Link.com,2013-03-04 17:25:00,
2013-03-04 11:40:00,41.9,34.6,29.69,West,270,4.7,-999.0,75,-99.99,,,0.00,Acu-Link.com,2013-03-04 17:40:00,
2013-03-04 11:55:00,43.9,35.1,29.68,NE,45,7.3,-999.0,71,-99.99,,,0.00,Acu-Link.com,2013-03-04 17:55:00,
2013-03-04 12:10:00,45.5,35.6,29.69,NNE,22,13.0,-999.0,68,-99.99,,,0.00,Acu-Link.com,2013-03-04 18:10:00,
2013-03-04 12:25:00,47.7,35.7,29.68,NNE,22,8.3,-999.0,63,-99.99,,,0.00,Acu-Link.com,2013-03-04 18:25:00,
2013-03-04 12:41:00,47.7,35.7,29.68,NE,45,8.3,-999.0,63,-99.99,,,0.00,Acu-Link.com,2013-03-04 18:41:00,
2013-03-04 12:56:00,46.6,35.1,29.67,NNE,22,9.9,-999.0,64,-99.99,,,0.00,Acu-Link.com,2013-03-04 18:56:00,
2013-03-04 13:11:00,45.1,33.3,29.68,North,0,8.3,-999.0,63,-99.99,,,0.00,Acu-Link.com,2013-03-04 19:11:00,
2013-03-04 13:26:00,47.5,33.0,29.68,NNE,22,5.3,-999.0,57,-99.99,,,0.00,Acu-Link.com,2013-03-04 19:26:00,
2013-03-04 13:41:00,47.5,32.6,29.68,NE,45,9.9,-999.0,56,-99.99,,,0.00,Acu-Link.com,2013-03-04 19:41:00,
2013-03-04 13:56:00,48.4,32.1,29.69,NNE,22,6.3,-999.0,53,-99.99,,,0.00,Acu-Link.com,2013-03-04 19:56:00,
2013-03-04 14:11:00,48.2,31.4,29.68,NNW,337,5.8,-999.0,52,-99.99,,,0.00,Acu-Link.com,2013-03-04 20:11:00,
2013-03-04 14:27:00,46.8,29.2,29.67,North,0,5.8,-999.0,50,-99.99,,,0.00,Acu-Link.com,2013-03-04 20:27:00,
2013-03-04 14:42:00,46.8,29.2,29.68,North,0,7.8,-999.0,50,-99.99,,,0.00,Acu-Link.com,2013-03-04 20:42:00,
2013-03-04 14:58:00,46.0,28.9,29.69,NNE,22,4.2,-999.0,51,-99.99,,,0.00,Acu-Link.com,2013-03-04 20:58:00,
2013-03-04 15:13:00,45.7,27.6,29.70,ENE,67,5.3,-999.0,49,-99.99,,,0.00,Acu-Link.com,2013-03-04 21:13:00,
2013-03-04 15:28:00,45.3,26.3,29.73,West,270,6.8,-999.0,47,-99.99,,,0.00,Acu-Link.com,2013-03-04 21:28:00,
2013-03-04 15:43:00,44.1,27.1,29.74,North,0,4.2,-999.0,51,-99.99,,,0.00,Acu-Link.com,2013-03-04 21:43:00,
2013-03-04 15:58:00,43.9,27.0,29.76,NW,315,3.2,-999.0,51,-99.99,,,0.00,Acu-Link.com,2013-03-04 21:58:00,
2013-03-04 16:13:00,43.9,27.4,29.77,West,270,4.7,-999.0,52,-99.99,,,0.00,Acu-Link.com,2013-03-04 22:13:00,
2013-03-04 16:28:00,43.2,27.7,29.77,NNW,337,4.7,-999.0,54,-99.99,,,0.00,Acu-Link.com,2013-03-04 22:28:00,
2013-03-04 16:44:00,42.8,25.9,29.77,SW,225,2.2,-999.0,51,-99.99,,,0.00,Acu-Link.com,2013-03-04 22:44:00,
2013-03-04 16:59:00,41.9,27.4,29.79,NNE,22,3.2,-999.0,56,-99.99,,,0.00,Acu-Link.com,2013-03-04 22:59:00,
2013-03-04 17:14:00,41.2,28.0,29.80,NNW,337,4.2,-999.0,59,-99.99,,,0.00,Acu-Link.com,2013-03-04 23:14:00,
2013-03-04 17:29:00,40.8,28.4,29.81,West,270,3.7,-999.0,61,-99.99,,,0.00,Acu-Link.com,2013-03-04 23:29:00,
2013-03-04 17:45:00,40.3,28.3,29.83,West,270,1.1,-999.0,62,-99.99,,,0.00,Acu-Link.com,2013-03-04 23:45:00,
2013-03-04 18:00:00,39.9,28.3,29.84,WNW,292,0.0,-999.0,63,-99.99,,,0.00,Acu-Link.com,2013-03-05 00:00:00,
2013-03-04 18:15:00,41.0,27.4,29.86,WSW,247,3.7,-999.0,58,-99.99,,,0.00,Acu-Link.com,2013-03-05 00:15:00,
2013-03-04 18:30:00,41.0,27.4,29.84,WNW,292,2.2,-999.0,58,-99.99,,,0.00,Acu-Link.com,2013-03-05 00:30:00,
2013-03-04 18:46:00,40.6,27.8,29.87,West,270,4.2,-999.0,60,-99.99,,,0.00,Acu-Link.com,2013-03-05 00:46:00,
2013-03-04 19:01:00,39.6,29.2,29.88,West,270,3.7,-999.0,66,-99.99,,,0.00,Acu-Link.com,2013-03-05 01:01:00,
2013-03-04 19:16:00,38.7,24.8,29.89,NNW,337,5.8,-999.0,57,-99.99,,,0.00,Acu-Link.com,2013-03-05 01:16:00,
2013-03-04 19:32:00,38.5,21.0,29.89,West,270,4.7,-999.0,49,-99.99,,,0.00,Acu-Link.com,2013-03-05 01:32:00,
2013-03-04 19:47:00,37.8,21.3,29.88,West,270,6.8,-999.0,51,-99.99,,,0.00,Acu-Link.com,2013-03-05 01:47:00,
2013-03-04 20:02:00,37.4,21.9,29.91,West,270,6.3,-999.0,53,-99.99,,,0.00,Acu-Link.com,2013-03-05 02:02:00,
2013-03-04 20:18:00,35.4,20.9,29.92,NW,315,15.0,-999.0,55,-99.99,,,0.00,Acu-Link.com,2013-03-05 02:18:00,
2013-03-04 20:33:00,34.7,21.0,29.94,West,270,11.4,-999.0,57,-99.99,,,0.00,Acu-Link.com,2013-03-05 02:33:00,
2013-03-04 20:48:00,34.2,19.7,29.95,NNW,337,8.3,-999.0,55,-99.99,,,0.00,Acu-Link.com,2013-03-05 02:48:00,
2013-03-04 21:03:00,33.4,18.6,29.96,NW,315,6.8,-999.0,54,-99.99,,,0.00,Acu-Link.com,2013-03-05 03:03:00,
2013-03-04 21:18:00,32.7,18.3,29.98,WNW,292,4.2,-999.0,55,-99.99,,,0.00,Acu-Link.com,2013-03-05 03:18:00,
2013-03-04 21:33:00,32.0,16.4,29.99,NW,315,6.8,-999.0,52,-99.99,,,0.00,Acu-Link.com,2013-03-05 03:33:00,
2013-03-04 21:49:00,30.9,14.9,30.00,NW,315,9.4,-999.0,51,-99.99,,,0.00,Acu-Link.com,2013-03-05 03:49:00,
2013-03-04 22:04:00,30.4,14.9,30.01,SW,225,4.2,-999.0,52,-99.99,,,0.00,Acu-Link.com,2013-03-05 04:04:00,
2013-03-04 22:19:00,29.8,13.9,30.02,NW,315,6.8,-999.0,51,-99.99,,,0.00,Acu-Link.com,2013-03-05 04:19:00,
2013-03-04 22:34:00,29.1,13.3,30.02,NNW,337,6.8,-999.0,51,-99.99,,,0.00,Acu-Link.com,2013-03-05 04:34:00,
2013-03-04 22:49:00,28.2,13.7,30.03,NW,315,9.9,-999.0,54,-99.99,,,0.00,Acu-Link.com,2013-03-05 04:49:00,
2013-03-04 23:04:00,27.7,14.1,30.03,West,270,9.4,-999.0,56,-99.99,,,0.00,Acu-Link.com,2013-03-05 05:04:00,
2013-03-04 23:19:00,27.1,14.3,30.03,NNE,22,7.3,-999.0,58,-99.99,,,0.00,Acu-Link.com,2013-03-05 05:19:00,
2013-03-04 23:34:00,26.8,13.6,30.03,NW,315,13.0,-999.0,57,-99.99,,,0.00,Acu-Link.com,2013-03-05 05:34:00,
2013-03-04 23:49:00,26.2,13.9,30.04,SW,225,8.3,-999.0,59,-99.99,,,0.00,Acu-Link.com,2013-03-05 05:49:00,